sensor_id;sensor_type;location;lat;lon;timestamp;temperature;humidity
34726;DHT22;20951;50.818;4.344;2022-09-30T00:00:04;11.40;99.90
34726;DHT22;20951;50.818;4.344;2022-09-30T00:02:30;11.40;99.90
34726;DHT22;20951;50.818;4.344;2022-09-30T00:04:56;11.40;99.90
34726;DHT22;20951;50.818;4.344;2022-09-30T00:07:22;11.40;99.90
34726;DHT22;20951;50.818;4.344;2022-09-30T00:09:49;11.30;99.90
34726;DHT22;20951;50.818;4.344;2022-09-30T00:12:15;11.30;99.90
34726;DHT22;20951;50.818;4.344;2022-09-30T00:14:42;11.20;99.90
34726;DHT22;20951;50.818;4.344;2022-09-30T00:17:08;11.20;99.90
34726;DHT22;20951;50.818;4.344;2022-09-30T00:19:34;11.10;99.90
34726;DHT22;20951;50.818;4.344;2022-09-30T00:22:00;11.10;99.90
34726;DHT22;20951;50.818;4.344;2022-09-30T00:24:26;11.10;99.90
34726;DHT22;20951;50.818;4.344;2022-09-30T00:26:52;11.10;99.90
34726;DHT22;20951;50.818;4.344;2022-09-30T00:29:18;11.00;99.90
34726;DHT22;20951;50.818;4.344;2022-09-30T00:31:44;10.90;99.90
34726;DHT22;20951;50.818;4.344;2022-09-30T00:34:10;10.90;99.90
34726;DHT22;20951;50.818;4.344;2022-09-30T00:39:03;11.00;99.90
34726;DHT22;20951;50.818;4.344;2022-09-30T00:41:30;11.00;99.90
34726;DHT22;20951;50.818;4.344;2022-09-30T00:43:56;11.00;99.90
34726;DHT22;20951;50.818;4.344;2022-09-30T00:46:39;11.00;99.90
34726;DHT22;20951;50.818;4.344;2022-09-30T00:49:12;11.00;99.90
34726;DHT22;20951;50.818;4.344;2022-09-30T00:51:40;11.00;99.90
34726;DHT22;20951;50.818;4.344;2022-09-30T00:54:20;11.00;99.90
34726;DHT22;20951;50.818;4.344;2022-09-30T00:56:51;11.00;99.90
34726;DHT22;20951;50.818;4.344;2022-09-30T00:59:34;11.00;99.90
34726;DHT22;20951;50.818;4.344;2022-09-30T01:02:03;11.00;99.90
34726;DHT22;20951;50.818;4.344;2022-09-30T01:04:31;10.90;99.90
34726;DHT22;20951;50.818;4.344;2022-09-30T01:07:05;10.90;99.90
34726;DHT22;20951;50.818;4.344;2022-09-30T01:09:33;10.90;99.90
34726;DHT22;20951;50.818;4.344;2022-09-30T01:12:02;10.80;99.90
34726;DHT22;20951;50.818;4.344;2022-09-30T01:14:29;10.70;99.90
34726;DHT22;20951;50.818;4.344;2022-09-30T01:17:13;10.70;99.90
34726;DHT22;20951;50.818;4.344;2022-09-30T01:42:39;10.70;99.90
34726;DHT22;20951;50.818;4.344;2022-09-30T01:45:12;10.60;99.90
34726;DHT22;20951;50.818;4.344;2022-09-30T01:47:57;10.50;99.90
34726;DHT22;20951;50.818;4.344;2022-09-30T01:56:52;10.40;99.90
34726;DHT22;20951;50.818;4.344;2022-09-30T01:59:17;10.40;99.90
34726;DHT22;20951;50.818;4.344;2022-09-30T02:01:57;10.40;99.90
34726;DHT22;20951;50.818;4.344;2022-09-30T02:04:33;10.30;99.90
34726;DHT22;20951;50.818;4.344;2022-09-30T02:07:05;10.30;99.90
34726;DHT22;20951;50.818;4.344;2022-09-30T02:12:04;10.30;99.90
34726;DHT22;20951;50.818;4.344;2022-09-30T02:14:51;10.40;99.90
34726;DHT22;20951;50.818;4.344;2022-09-30T02:17:24;10.40;99.90
34726;DHT22;20951;50.818;4.344;2022-09-30T02:20:14;10.40;99.90
34726;DHT22;20951;50.818;4.344;2022-09-30T02:22:48;10.30;99.90
34726;DHT22;20951;50.818;4.344;2022-09-30T02:25:37;10.30;99.90
34726;DHT22;20951;50.818;4.344;2022-09-30T02:28:07;10.30;99.90
34726;DHT22;20951;50.818;4.344;2022-09-30T02:30:35;10.20;99.90
34726;DHT22;20951;50.818;4.344;2022-09-30T02:33:06;10.20;99.90
34726;DHT22;20951;50.818;4.344;2022-09-30T02:35:37;10.20;99.90
34726;DHT22;20951;50.818;4.344;2022-09-30T02:38:35;10.20;99.90
34726;DHT22;20951;50.818;4.344;2022-09-30T02:41:11;10.20;99.90
34726;DHT22;20951;50.818;4.344;2022-09-30T02:43:40;10.20;99.90
34726;DHT22;20951;50.818;4.344;2022-09-30T02:48:58;10.30;99.90
34726;DHT22;20951;50.818;4.344;2022-09-30T02:54:58;10.30;99.90
34726;DHT22;20951;50.818;4.344;2022-09-30T03:00:12;10.20;99.90
34726;DHT22;20951;50.818;4.344;2022-09-30T03:02:39;10.30;99.90
34726;DHT22;20951;50.818;4.344;2022-09-30T03:05:06;10.20;99.90
34726;DHT22;20951;50.818;4.344;2022-09-30T03:07:33;10.20;99.90
34726;DHT22;20951;50.818;4.344;2022-09-30T03:09:59;10.20;99.90
34726;DHT22;20951;50.818;4.344;2022-09-30T03:12:37;10.20;99.90
34726;DHT22;20951;50.818;4.344;2022-09-30T03:34:58;10.30;99.90
34726;DHT22;20951;50.818;4.344;2022-09-30T03:45:57;10.30;99.90
34726;DHT22;20951;50.818;4.344;2022-09-30T03:48:26;10.30;99.90
34726;DHT22;20951;50.818;4.344;2022-09-30T03:50:53;10.40;99.90
34726;DHT22;20951;50.818;4.344;2022-09-30T03:53:20;10.40;99.90
34726;DHT22;20951;50.818;4.344;2022-09-30T03:55:49;10.40;99.90
34726;DHT22;20951;50.818;4.344;2022-09-30T03:58:17;10.30;99.90
34726;DHT22;20951;50.818;4.344;2022-09-30T04:00:48;10.20;99.90
34726;DHT22;20951;50.818;4.344;2022-09-30T04:03:16;10.10;99.90
34726;DHT22;20951;50.818;4.344;2022-09-30T04:05:42;10.10;99.90
34726;DHT22;20951;50.818;4.344;2022-09-30T04:08:08;10.00;99.90
34726;DHT22;20951;50.818;4.344;2022-09-30T04:10:34;10.00;99.90
34726;DHT22;20951;50.818;4.344;2022-09-30T04:13:00;10.00;99.90
34726;DHT22;20951;50.818;4.344;2022-09-30T04:15:26;9.80;99.90
34726;DHT22;20951;50.818;4.344;2022-09-30T04:17:52;9.80;99.90
34726;DHT22;20951;50.818;4.344;2022-09-30T04:20:18;9.60;99.90
34726;DHT22;20951;50.818;4.344;2022-09-30T04:22:44;9.70;99.90
34726;DHT22;20951;50.818;4.344;2022-09-30T04:25:10;9.60;99.90
34726;DHT22;20951;50.818;4.344;2022-09-30T04:27:37;9.60;99.90
34726;DHT22;20951;50.818;4.344;2022-09-30T04:30:03;9.70;99.90
34726;DHT22;20951;50.818;4.344;2022-09-30T04:32:29;9.70;99.90
34726;DHT22;20951;50.818;4.344;2022-09-30T04:34:56;9.60;99.90
34726;DHT22;20951;50.818;4.344;2022-09-30T04:37:21;9.50;99.90
34726;DHT22;20951;50.818;4.344;2022-09-30T04:39:48;9.50;99.90
34726;DHT22;20951;50.818;4.344;2022-09-30T04:42:14;9.40;99.90
34726;DHT22;20951;50.818;4.344;2022-09-30T04:44:41;9.40;99.90
34726;DHT22;20951;50.818;4.344;2022-09-30T04:47:07;9.40;99.90
34726;DHT22;20951;50.818;4.344;2022-09-30T04:49:33;9.40;99.90
34726;DHT22;20951;50.818;4.344;2022-09-30T04:51:59;9.30;99.90
34726;DHT22;20951;50.818;4.344;2022-09-30T04:54:25;9.30;99.90
34726;DHT22;20951;50.818;4.344;2022-09-30T04:56:51;9.20;99.90
34726;DHT22;20951;50.818;4.344;2022-09-30T04:59:17;9.30;99.90
34726;DHT22;20951;50.818;4.344;2022-09-30T05:01:43;9.30;99.90
34726;DHT22;20951;50.818;4.344;2022-09-30T05:04:09;9.30;99.90
34726;DHT22;20951;50.818;4.344;2022-09-30T05:06:37;9.20;99.90
34726;DHT22;20951;50.818;4.344;2022-09-30T05:09:06;9.30;99.90
34726;DHT22;20951;50.818;4.344;2022-09-30T05:11:32;9.30;99.90
34726;DHT22;20951;50.818;4.344;2022-09-30T05:13:59;9.20;99.90
34726;DHT22;20951;50.818;4.344;2022-09-30T05:16:27;9.20;99.90
34726;DHT22;20951;50.818;4.344;2022-09-30T05:18:55;9.10;99.90
34726;DHT22;20951;50.818;4.344;2022-09-30T05:21:22;9.10;99.90
34726;DHT22;20951;50.818;4.344;2022-09-30T05:23:49;9.00;99.90
34726;DHT22;20951;50.818;4.344;2022-09-30T05:26:16;9.10;99.90
34726;DHT22;20951;50.818;4.344;2022-09-30T05:28:43;9.10;99.90
34726;DHT22;20951;50.818;4.344;2022-09-30T05:31:10;9.10;99.90
34726;DHT22;20951;50.818;4.344;2022-09-30T05:33:39;9.10;99.90
34726;DHT22;20951;50.818;4.344;2022-09-30T05:36:08;9.10;99.90
34726;DHT22;20951;50.818;4.344;2022-09-30T05:38:35;9.10;99.90
34726;DHT22;20951;50.818;4.344;2022-09-30T05:41:07;9.10;99.90
34726;DHT22;20951;50.818;4.344;2022-09-30T05:43:36;9.10;99.90
34726;DHT22;20951;50.818;4.344;2022-09-30T05:46:03;9.10;99.90
34726;DHT22;20951;50.818;4.344;2022-09-30T05:48:30;9.20;99.90
34726;DHT22;20951;50.818;4.344;2022-09-30T05:50:58;9.20;99.90
34726;DHT22;20951;50.818;4.344;2022-09-30T05:53:27;9.20;99.90
34726;DHT22;20951;50.818;4.344;2022-09-30T05:55:55;9.20;99.90
34726;DHT22;20951;50.818;4.344;2022-09-30T05:58:23;9.30;99.90
34726;DHT22;20951;50.818;4.344;2022-09-30T06:00:50;9.30;99.90
34726;DHT22;20951;50.818;4.344;2022-09-30T06:03:18;9.30;99.90
34726;DHT22;20951;50.818;4.344;2022-09-30T06:05:47;9.30;99.90
34726;DHT22;20951;50.818;4.344;2022-09-30T06:08:14;9.20;99.90
34726;DHT22;20951;50.818;4.344;2022-09-30T06:10:43;9.30;99.90
34726;DHT22;20951;50.818;4.344;2022-09-30T06:13:11;9.30;99.90
34726;DHT22;20951;50.818;4.344;2022-09-30T06:15:38;9.40;99.90
34726;DHT22;20951;50.818;4.344;2022-09-30T06:18:07;9.50;99.90
34726;DHT22;20951;50.818;4.344;2022-09-30T06:20:35;9.50;99.90
34726;DHT22;20951;50.818;4.344;2022-09-30T06:23:03;9.50;99.90
34726;DHT22;20951;50.818;4.344;2022-09-30T06:25:30;9.50;99.90
34726;DHT22;20951;50.818;4.344;2022-09-30T06:27:58;9.50;99.90
34726;DHT22;20951;50.818;4.344;2022-09-30T06:30:26;9.60;99.90
34726;DHT22;20951;50.818;4.344;2022-09-30T06:32:55;9.60;99.90
34726;DHT22;20951;50.818;4.344;2022-09-30T06:35:22;9.60;99.90
34726;DHT22;20951;50.818;4.344;2022-09-30T06:37:53;9.60;99.90
34726;DHT22;20951;50.818;4.344;2022-09-30T06:40:20;9.60;99.90
34726;DHT22;20951;50.818;4.344;2022-09-30T06:42:48;9.60;99.90
34726;DHT22;20951;50.818;4.344;2022-09-30T06:45:15;9.60;99.90
34726;DHT22;20951;50.818;4.344;2022-09-30T06:47:44;9.60;99.90
34726;DHT22;20951;50.818;4.344;2022-09-30T06:50:12;9.70;99.90
34726;DHT22;20951;50.818;4.344;2022-09-30T06:52:40;9.80;99.90
34726;DHT22;20951;50.818;4.344;2022-09-30T06:55:08;9.90;99.90
34726;DHT22;20951;50.818;4.344;2022-09-30T06:57:36;9.80;99.90
34726;DHT22;20951;50.818;4.344;2022-09-30T07:00:04;9.70;99.90
34726;DHT22;20951;50.818;4.344;2022-09-30T07:02:32;9.60;99.90
34726;DHT22;20951;50.818;4.344;2022-09-30T07:05:00;9.50;99.90
34726;DHT22;20951;50.818;4.344;2022-09-30T07:07:29;9.70;99.90
34726;DHT22;20951;50.818;4.344;2022-09-30T07:09:59;9.70;99.90
34726;DHT22;20951;50.818;4.344;2022-09-30T07:12:27;9.80;99.90
34726;DHT22;20951;50.818;4.344;2022-09-30T07:14:55;9.80;99.90
34726;DHT22;20951;50.818;4.344;2022-09-30T07:17:23;9.90;99.90
34726;DHT22;20951;50.818;4.344;2022-09-30T07:19:49;9.90;99.90
34726;DHT22;20951;50.818;4.344;2022-09-30T07:22:17;9.90;99.90
34726;DHT22;20951;50.818;4.344;2022-09-30T07:24:59;9.90;99.90
34726;DHT22;20951;50.818;4.344;2022-09-30T07:27:27;10.10;99.90
34726;DHT22;20951;50.818;4.344;2022-09-30T07:29:55;10.20;99.90
34726;DHT22;20951;50.818;4.344;2022-09-30T07:32:22;10.20;99.90
34726;DHT22;20951;50.818;4.344;2022-09-30T07:34:50;10.20;99.90
34726;DHT22;20951;50.818;4.344;2022-09-30T07:37:18;10.30;99.90
34726;DHT22;20951;50.818;4.344;2022-09-30T07:39:46;10.40;99.90
34726;DHT22;20951;50.818;4.344;2022-09-30T07:42:15;10.30;99.90
34726;DHT22;20951;50.818;4.344;2022-09-30T07:44:45;10.50;99.90
34726;DHT22;20951;50.818;4.344;2022-09-30T07:47:12;10.60;99.90
34726;DHT22;20951;50.818;4.344;2022-09-30T07:49:41;10.70;99.90
34726;DHT22;20951;50.818;4.344;2022-09-30T07:52:10;10.90;99.90
34726;DHT22;20951;50.818;4.344;2022-09-30T07:54:38;11.00;99.90
34726;DHT22;20951;50.818;4.344;2022-09-30T07:57:06;11.10;99.90
34726;DHT22;20951;50.818;4.344;2022-09-30T07:59:37;11.10;99.90
34726;DHT22;20951;50.818;4.344;2022-09-30T08:02:06;11.30;99.90
34726;DHT22;20951;50.818;4.344;2022-09-30T08:04:34;11.30;99.90
34726;DHT22;20951;50.818;4.344;2022-09-30T08:07:02;11.50;99.90
34726;DHT22;20951;50.818;4.344;2022-09-30T08:09:30;11.60;99.90
34726;DHT22;20951;50.818;4.344;2022-09-30T08:11:58;11.60;99.90
34726;DHT22;20951;50.818;4.344;2022-09-30T08:14:28;11.70;99.90
34726;DHT22;20951;50.818;4.344;2022-09-30T08:16:55;11.90;99.90
34726;DHT22;20951;50.818;4.344;2022-09-30T08:19:27;12.00;99.90
34726;DHT22;20951;50.818;4.344;2022-09-30T08:21:54;12.20;99.90
34726;DHT22;20951;50.818;4.344;2022-09-30T08:24:23;13.30;99.90
34726;DHT22;20951;50.818;4.344;2022-09-30T08:26:51;15.30;99.90
34726;DHT22;20951;50.818;4.344;2022-09-30T08:29:18;17.10;99.90
34726;DHT22;20951;50.818;4.344;2022-09-30T08:31:46;17.90;99.90
34726;DHT22;20951;50.818;4.344;2022-09-30T08:34:15;19.30;99.90
34726;DHT22;20951;50.818;4.344;2022-09-30T08:36:44;20.40;99.90
34726;DHT22;20951;50.818;4.344;2022-09-30T08:39:12;22.60;99.90
34726;DHT22;20951;50.818;4.344;2022-09-30T08:42:02;21.80;99.90
34726;DHT22;20951;50.818;4.344;2022-09-30T08:44:43;20.80;99.90
34726;DHT22;20951;50.818;4.344;2022-09-30T08:47:30;19.30;99.90
34726;DHT22;20951;50.818;4.344;2022-09-30T08:52:49;18.70;99.90
34726;DHT22;20951;50.818;4.344;2022-09-30T08:55:27;19.80;99.90
34726;DHT22;20951;50.818;4.344;2022-09-30T08:57:56;20.90;99.90
34726;DHT22;20951;50.818;4.344;2022-09-30T09:00:26;21.30;99.90
34726;DHT22;20951;50.818;4.344;2022-09-30T09:02:58;22.70;99.90
34726;DHT22;20951;50.818;4.344;2022-09-30T09:06:13;22.60;99.90
34726;DHT22;20951;50.818;4.344;2022-09-30T09:09:09;23.70;99.90
34726;DHT22;20951;50.818;4.344;2022-09-30T09:17:54;27.50;97.50
34726;DHT22;20951;50.818;4.344;2022-09-30T09:20:15;26.10;97.10
34726;DHT22;20951;50.818;4.344;2022-09-30T09:22:45;26.30;97.10
34726;DHT22;20951;50.818;4.344;2022-09-30T09:25:16;26.40;96.60
34726;DHT22;20951;50.818;4.344;2022-09-30T09:28:01;26.80;96.40
34726;DHT22;20951;50.818;4.344;2022-09-30T09:30:35;27.00;95.00
34726;DHT22;20951;50.818;4.344;2022-09-30T09:33:34;26.80;95.40
34726;DHT22;20951;50.818;4.344;2022-09-30T09:39:15;25.40;96.70
34726;DHT22;20951;50.818;4.344;2022-09-30T09:42:21;25.50;96.60
34726;DHT22;20951;50.818;4.344;2022-09-30T09:47:24;25.60;96.40
34726;DHT22;20951;50.818;4.344;2022-09-30T09:49:59;26.10;96.30
34726;DHT22;20951;50.818;4.344;2022-09-30T09:55:21;27.10;94.80
34726;DHT22;20951;50.818;4.344;2022-09-30T09:58:08;26.70;94.60
34726;DHT22;20951;50.818;4.344;2022-09-30T10:00:36;27.30;94.10
34726;DHT22;20951;50.818;4.344;2022-09-30T10:03:18;27.20;94.00
34726;DHT22;20951;50.818;4.344;2022-09-30T10:06:04;26.90;93.80
34726;DHT22;20951;50.818;4.344;2022-09-30T10:08:35;26.60;94.50
34726;DHT22;20951;50.818;4.344;2022-09-30T10:11:19;27.10;94.10
34726;DHT22;20951;50.818;4.344;2022-09-30T10:13:48;26.50;93.80
34726;DHT22;20951;50.818;4.344;2022-09-30T10:16:34;24.90;95.60
34726;DHT22;20951;50.818;4.344;2022-09-30T10:19:25;24.80;95.80
34726;DHT22;20951;50.818;4.344;2022-09-30T10:24:42;26.50;94.90
34726;DHT22;20951;50.818;4.344;2022-09-30T10:27:32;25.70;94.80
34726;DHT22;20951;50.818;4.344;2022-09-30T10:30:01;25.90;94.50
34726;DHT22;20951;50.818;4.344;2022-09-30T10:32:29;24.50;95.30
34726;DHT22;20951;50.818;4.344;2022-09-30T10:35:10;25.40;95.60
34726;DHT22;20951;50.818;4.344;2022-09-30T10:37:52;25.90;94.50
34726;DHT22;20951;50.818;4.344;2022-09-30T10:40:26;26.30;94.10
34726;DHT22;20951;50.818;4.344;2022-09-30T10:42:54;24.20;95.60
34726;DHT22;20951;50.818;4.344;2022-09-30T10:45:33;23.10;98.20
34726;DHT22;20951;50.818;4.344;2022-09-30T10:48:06;23.70;97.20
34726;DHT22;20951;50.818;4.344;2022-09-30T10:50:40;24.40;96.40
34726;DHT22;20951;50.818;4.344;2022-09-30T10:53:20;23.90;97.10
34726;DHT22;20951;50.818;4.344;2022-09-30T10:55:49;24.60;96.40
34726;DHT22;20951;50.818;4.344;2022-09-30T11:06:24;22.70;98.50
34726;DHT22;20951;50.818;4.344;2022-09-30T11:09:02;22.80;97.70
34726;DHT22;20951;50.818;4.344;2022-09-30T11:11:39;23.10;97.30
34726;DHT22;20951;50.818;4.344;2022-09-30T11:14:25;24.00;96.50
34726;DHT22;20951;50.818;4.344;2022-09-30T11:20:05;23.80;96.40
34726;DHT22;20951;50.818;4.344;2022-09-30T11:23:04;24.00;95.20
34726;DHT22;20951;50.818;4.344;2022-09-30T11:25:51;23.90;95.40
34726;DHT22;20951;50.818;4.344;2022-09-30T11:36:31;23.40;97.40
34726;DHT22;20951;50.818;4.344;2022-09-30T11:42:03;23.90;96.00
34726;DHT22;20951;50.818;4.344;2022-09-30T11:44:35;23.50;96.70
34726;DHT22;20951;50.818;4.344;2022-09-30T11:50:09;24.00;96.90
34726;DHT22;20951;50.818;4.344;2022-09-30T11:56:02;24.90;96.00
34726;DHT22;20951;50.818;4.344;2022-09-30T11:58:42;24.40;95.30
34726;DHT22;20951;50.818;4.344;2022-09-30T12:01:33;24.00;96.10
34726;DHT22;20951;50.818;4.344;2022-09-30T12:09:37;22.00;98.50
34726;DHT22;20951;50.818;4.344;2022-09-30T12:12:12;21.00;99.90
34726;DHT22;20951;50.818;4.344;2022-09-30T12:15:03;20.10;99.90
34726;DHT22;20951;50.818;4.344;2022-09-30T12:17:42;19.80;99.90
34726;DHT22;20951;50.818;4.344;2022-09-30T12:20:35;19.90;99.90
34726;DHT22;20951;50.818;4.344;2022-09-30T12:25:59;20.50;99.90
34726;DHT22;20951;50.818;4.344;2022-09-30T12:28:37;21.10;99.90
34726;DHT22;20951;50.818;4.344;2022-09-30T12:37:19;21.60;99.90
34726;DHT22;20951;50.818;4.344;2022-09-30T12:42:48;21.20;99.90
34726;DHT22;20951;50.818;4.344;2022-09-30T12:48:07;20.70;99.90
34726;DHT22;20951;50.818;4.344;2022-09-30T12:50:58;19.90;99.90
34726;DHT22;20951;50.818;4.344;2022-09-30T12:53:31;19.70;99.90
34726;DHT22;20951;50.818;4.344;2022-09-30T12:56:08;19.50;99.90
34726;DHT22;20951;50.818;4.344;2022-09-30T12:58:42;20.00;99.90
34726;DHT22;20951;50.818;4.344;2022-09-30T13:01:10;20.20;99.90
34726;DHT22;20951;50.818;4.344;2022-09-30T13:09:30;20.60;99.90
34726;DHT22;20951;50.818;4.344;2022-09-30T13:14:36;20.70;99.90
34726;DHT22;20951;50.818;4.344;2022-09-30T13:33:04;22.00;99.90
34726;DHT22;20951;50.818;4.344;2022-09-30T13:46:30;21.20;99.90
34726;DHT22;20951;50.818;4.344;2022-09-30T13:49:21;20.90;99.90
34726;DHT22;20951;50.818;4.344;2022-09-30T13:51:53;20.80;99.90
34726;DHT22;20951;50.818;4.344;2022-09-30T13:54:34;20.90;99.90
34726;DHT22;20951;50.818;4.344;2022-09-30T13:57:04;21.60;99.90
34726;DHT22;20951;50.818;4.344;2022-09-30T14:02:25;21.10;99.90
34726;DHT22;20951;50.818;4.344;2022-09-30T14:05:31;21.40;99.90
34726;DHT22;20951;50.818;4.344;2022-09-30T14:08:15;21.50;99.90
34726;DHT22;20951;50.818;4.344;2022-09-30T14:22:07;22.30;98.60
34726;DHT22;20951;50.818;4.344;2022-09-30T14:24:37;23.40;97.30
34726;DHT22;20951;50.818;4.344;2022-09-30T14:30:10;22.00;98.10
34726;DHT22;20951;50.818;4.344;2022-09-30T14:35:19;21.20;99.60
34726;DHT22;20951;50.818;4.344;2022-09-30T14:37:56;21.90;98.90
34726;DHT22;20951;50.818;4.344;2022-09-30T14:40:33;21.90;98.70
34726;DHT22;20951;50.818;4.344;2022-09-30T14:43:06;21.60;98.80
34726;DHT22;20951;50.818;4.344;2022-09-30T14:45:43;21.80;98.60
34726;DHT22;20951;50.818;4.344;2022-09-30T14:48:37;21.50;98.10
34726;DHT22;20951;50.818;4.344;2022-09-30T14:51:14;21.70;98.50
34726;DHT22;20951;50.818;4.344;2022-09-30T14:53:53;21.70;97.80
34726;DHT22;20951;50.818;4.344;2022-09-30T14:56:27;22.00;97.60
34726;DHT22;20951;50.818;4.344;2022-09-30T14:58:57;22.10;97.30
34726;DHT22;20951;50.818;4.344;2022-09-30T15:01:28;22.10;97.40
34726;DHT22;20951;50.818;4.344;2022-09-30T15:03:59;21.80;98.30
34726;DHT22;20951;50.818;4.344;2022-09-30T15:06:32;21.80;98.00
34726;DHT22;20951;50.818;4.344;2022-09-30T15:09:06;21.80;98.00
34726;DHT22;20951;50.818;4.344;2022-09-30T15:11:40;21.30;98.70
34726;DHT22;20951;50.818;4.344;2022-09-30T15:14:19;20.80;99.30
34726;DHT22;20951;50.818;4.344;2022-09-30T15:16:59;20.50;99.90
34726;DHT22;20951;50.818;4.344;2022-09-30T15:19:42;20.20;99.90
34726;DHT22;20951;50.818;4.344;2022-09-30T15:22:12;19.60;99.90
34726;DHT22;20951;50.818;4.344;2022-09-30T15:24:42;19.70;99.90
34726;DHT22;20951;50.818;4.344;2022-09-30T15:27:20;19.80;99.90
34726;DHT22;20951;50.818;4.344;2022-09-30T15:30:19;19.90;99.90
34726;DHT22;20951;50.818;4.344;2022-09-30T15:32:55;20.30;99.90
34726;DHT22;20951;50.818;4.344;2022-09-30T15:35:24;20.30;99.90
34726;DHT22;20951;50.818;4.344;2022-09-30T15:37:52;20.40;99.60
34726;DHT22;20951;50.818;4.344;2022-09-30T15:40:22;20.30;99.90
34726;DHT22;20951;50.818;4.344;2022-09-30T15:43:10;20.30;99.90
34726;DHT22;20951;50.818;4.344;2022-09-30T15:45:44;20.20;99.90
34726;DHT22;20951;50.818;4.344;2022-09-30T15:48:31;19.60;99.90
34726;DHT22;20951;50.818;4.344;2022-09-30T15:51:00;19.10;99.90
34726;DHT22;20951;50.818;4.344;2022-09-30T15:53:49;18.50;99.90
34726;DHT22;20951;50.818;4.344;2022-09-30T15:59:13;17.90;99.90
34726;DHT22;20951;50.818;4.344;2022-09-30T16:01:47;17.80;99.90
34726;DHT22;20951;50.818;4.344;2022-09-30T16:17:25;17.60;99.90
34726;DHT22;20951;50.818;4.344;2022-09-30T16:19:55;17.60;99.90
34726;DHT22;20951;50.818;4.344;2022-09-30T16:27:44;17.30;99.90
34726;DHT22;20951;50.818;4.344;2022-09-30T16:30:16;17.10;99.90
34726;DHT22;20951;50.818;4.344;2022-09-30T16:32:48;17.00;99.90
34726;DHT22;20951;50.818;4.344;2022-09-30T16:35:19;16.90;99.90
34726;DHT22;20951;50.818;4.344;2022-09-30T16:37:49;16.90;99.90
34726;DHT22;20951;50.818;4.344;2022-09-30T16:40:23;16.80;99.90
34726;DHT22;20951;50.818;4.344;2022-09-30T16:42:51;16.80;99.90
34726;DHT22;20951;50.818;4.344;2022-09-30T16:45:20;16.60;99.90
34726;DHT22;20951;50.818;4.344;2022-09-30T16:47:49;16.60;99.90
34726;DHT22;20951;50.818;4.344;2022-09-30T16:52:44;16.50;99.90
34726;DHT22;20951;50.818;4.344;2022-09-30T16:55:13;16.50;99.90
34726;DHT22;20951;50.818;4.344;2022-09-30T16:57:42;16.60;99.90
34726;DHT22;20951;50.818;4.344;2022-09-30T17:00:13;16.50;99.90
34726;DHT22;20951;50.818;4.344;2022-09-30T17:02:47;16.50;99.90
34726;DHT22;20951;50.818;4.344;2022-09-30T17:05:19;16.50;99.90
34726;DHT22;20951;50.818;4.344;2022-09-30T17:07:52;16.50;99.90
34726;DHT22;20951;50.818;4.344;2022-09-30T17:10:30;16.40;99.90
34726;DHT22;20951;50.818;4.344;2022-09-30T17:13:01;16.30;99.90
34726;DHT22;20951;50.818;4.344;2022-09-30T17:15:31;16.20;99.90
34726;DHT22;20951;50.818;4.344;2022-09-30T17:18:05;16.20;99.90
34726;DHT22;20951;50.818;4.344;2022-09-30T17:20:34;16.10;99.90
34726;DHT22;20951;50.818;4.344;2022-09-30T17:23:03;16.10;99.90
34726;DHT22;20951;50.818;4.344;2022-09-30T17:25:32;16.10;99.90
34726;DHT22;20951;50.818;4.344;2022-09-30T17:28:01;16.00;99.90
34726;DHT22;20951;50.818;4.344;2022-09-30T17:30:30;15.90;99.90
34726;DHT22;20951;50.818;4.344;2022-09-30T17:33:00;15.90;99.90
34726;DHT22;20951;50.818;4.344;2022-09-30T17:35:28;15.90;99.90
34726;DHT22;20951;50.818;4.344;2022-09-30T17:37:57;15.90;99.90
34726;DHT22;20951;50.818;4.344;2022-09-30T17:40:27;15.90;99.90
34726;DHT22;20951;50.818;4.344;2022-09-30T17:43:33;15.90;99.90
34726;DHT22;20951;50.818;4.344;2022-09-30T17:46:02;15.70;99.90
34726;DHT22;20951;50.818;4.344;2022-09-30T17:48:31;15.60;99.90
34726;DHT22;20951;50.818;4.344;2022-09-30T17:51:00;15.60;99.90
34726;DHT22;20951;50.818;4.344;2022-09-30T17:53:28;15.50;99.90
34726;DHT22;20951;50.818;4.344;2022-09-30T17:56:02;15.50;99.90
34726;DHT22;20951;50.818;4.344;2022-09-30T17:58:31;15.60;99.90
34726;DHT22;20951;50.818;4.344;2022-09-30T18:01:09;15.60;99.90
34726;DHT22;20951;50.818;4.344;2022-09-30T18:03:38;15.50;99.90
34726;DHT22;20951;50.818;4.344;2022-09-30T18:06:07;15.60;99.90
34726;DHT22;20951;50.818;4.344;2022-09-30T18:08:35;15.60;99.90
34726;DHT22;20951;50.818;4.344;2022-09-30T18:11:04;15.60;99.90
34726;DHT22;20951;50.818;4.344;2022-09-30T18:13:33;15.50;99.90
34726;DHT22;20951;50.818;4.344;2022-09-30T18:16:04;15.50;99.90
34726;DHT22;20951;50.818;4.344;2022-09-30T18:18:36;15.40;99.90
34726;DHT22;20951;50.818;4.344;2022-09-30T18:21:05;15.40;99.90
34726;DHT22;20951;50.818;4.344;2022-09-30T18:23:34;15.40;99.90
34726;DHT22;20951;50.818;4.344;2022-09-30T18:26:03;15.50;99.90
34726;DHT22;20951;50.818;4.344;2022-09-30T18:28:33;15.40;99.90
34726;DHT22;20951;50.818;4.344;2022-09-30T18:31:06;15.40;99.90
34726;DHT22;20951;50.818;4.344;2022-09-30T18:33:35;15.50;99.90
34726;DHT22;20951;50.818;4.344;2022-09-30T18:36:04;15.60;99.90
34726;DHT22;20951;50.818;4.344;2022-09-30T18:38:33;15.50;99.90
34726;DHT22;20951;50.818;4.344;2022-09-30T18:41:04;15.40;99.90
34726;DHT22;20951;50.818;4.344;2022-09-30T18:43:33;15.20;99.90
34726;DHT22;20951;50.818;4.344;2022-09-30T18:46:02;15.20;99.90
34726;DHT22;20951;50.818;4.344;2022-09-30T18:48:30;15.30;99.90
34726;DHT22;20951;50.818;4.344;2022-09-30T18:51:04;15.10;99.90
34726;DHT22;20951;50.818;4.344;2022-09-30T18:53:32;15.20;99.90
34726;DHT22;20951;50.818;4.344;2022-09-30T18:56:02;15.10;99.90
34726;DHT22;20951;50.818;4.344;2022-09-30T18:58:31;15.30;99.90
34726;DHT22;20951;50.818;4.344;2022-09-30T19:01:03;15.30;99.90
34726;DHT22;20951;50.818;4.344;2022-09-30T19:03:32;15.40;99.90
34726;DHT22;20951;50.818;4.344;2022-09-30T19:06:06;15.30;99.90
34726;DHT22;20951;50.818;4.344;2022-09-30T19:08:35;15.30;99.90
34726;DHT22;20951;50.818;4.344;2022-09-30T19:11:07;15.20;99.90
34726;DHT22;20951;50.818;4.344;2022-09-30T19:13:36;15.20;99.90
34726;DHT22;20951;50.818;4.344;2022-09-30T19:16:05;15.20;99.90
34726;DHT22;20951;50.818;4.344;2022-09-30T19:18:33;15.00;99.90
34726;DHT22;20951;50.818;4.344;2022-09-30T19:21:06;15.10;99.90
34726;DHT22;20951;50.818;4.344;2022-09-30T19:23:35;15.20;99.90
34726;DHT22;20951;50.818;4.344;2022-09-30T19:26:04;15.10;99.90
34726;DHT22;20951;50.818;4.344;2022-09-30T19:28:31;15.10;99.90
34726;DHT22;20951;50.818;4.344;2022-09-30T19:31:04;15.30;99.90
34726;DHT22;20951;50.818;4.344;2022-09-30T19:33:33;15.20;99.90
34726;DHT22;20951;50.818;4.344;2022-09-30T19:36:09;15.10;99.90
34726;DHT22;20951;50.818;4.344;2022-09-30T19:38:41;15.10;99.90
34726;DHT22;20951;50.818;4.344;2022-09-30T19:41:09;15.10;99.90
34726;DHT22;20951;50.818;4.344;2022-09-30T19:43:38;15.10;99.90